createdAt,value
2024-02-13T00:02:03.711Z,96672.75
2024-02-13T00:04:33.573Z,96677.25
2024-02-13T00:07:02.374Z,96678.59
2024-02-13T00:09:33.149Z,96685.50
2024-02-13T00:12:02.630Z,96683.41
2024-02-13T00:14:32.084Z,96685.53
2024-02-13T00:17:01.761Z,96693.50
2024-02-13T00:19:32.469Z,96697.78
2024-02-13T00:22:02.240Z,96702.59
2024-02-13T00:24:35.192Z,96706.31
2024-02-13T00:27:04.906Z,96710.31
2024-02-13T00:29:33.820Z,96715.38
2024-02-13T00:32:03.568Z,96715.09
2024-02-13T00:34:53.996Z,96718.03
2024-02-13T00:37:24.976Z,96724.97
2024-02-13T00:39:55.855Z,96726.53
2024-02-13T00:42:26.126Z,96729.75
2024-02-13T00:44:56.161Z,96731.34
2024-02-13T00:47:27.442Z,96730.28
2024-02-13T00:49:56.959Z,96730.81
2024-02-13T00:52:26.587Z,96738.25
2024-02-13T00:54:58.508Z,96743.03
2024-02-13T00:57:30.469Z,96751.56
2024-02-13T00:59:59.376Z,96752.38
2024-02-13T01:02:29.218Z,96759.31
2024-02-13T01:04:59.463Z,96758.75
2024-02-13T01:07:29.528Z,96769.66
2024-02-13T01:10:00.887Z,96777.66
2024-02-13T01:12:31.009Z,96787.78
2024-02-13T01:15:00.561Z,96789.38
2024-02-13T01:17:30.575Z,96789.13
2024-02-13T01:20:00.361Z,96791.50
2024-02-13T01:22:30.563Z,96796.03
2024-02-13T01:25:02.252Z,96789.41
2024-02-13T01:27:33.285Z,96793.13
2024-02-13T01:30:02.744Z,96793.63
2024-02-13T01:32:35.057Z,96793.13
2024-02-13T01:35:04.990Z,96795.25
2024-02-13T01:37:35.261Z,96803.22
2024-02-13T01:40:07.277Z,96804.84
2024-02-13T01:42:39.852Z,96810.16
2024-02-13T01:45:11.340Z,96814.69
2024-02-13T01:47:55.498Z,96814.41
2024-02-13T01:50:25.563Z,96815.22
2024-02-13T01:52:55.187Z,96823.47
2024-02-13T01:55:26.780Z,96822.97
2024-02-13T01:58:00.878Z,96826.69
2024-02-13T02:00:30.600Z,96831.72
2024-02-13T02:03:01.225Z,96834.91
2024-02-13T02:05:30.750Z,96837.53
2024-02-13T02:08:16.714Z,96842.88
2024-02-13T02:10:47.424Z,96844.47
2024-02-13T02:13:16.934Z,96849.53
2024-02-13T02:15:58.618Z,96856.97
2024-02-13T02:18:28.794Z,96858.59
2024-02-13T02:20:58.307Z,96857.53
2024-02-13T02:23:28.403Z,96858.38
2024-02-13T02:26:09.427Z,96863.97
2024-02-13T02:28:59.054Z,96867.38
2024-02-13T02:31:28.265Z,96873.53
2024-02-13T02:33:57.953Z,96874.06
2024-02-13T02:36:27.246Z,96876.72
2024-02-13T02:38:56.774Z,96883.09
2024-02-13T02:41:27.177Z,96878.25
2024-02-13T02:43:56.857Z,96884.16
2024-02-13T02:46:25.751Z,96890.53
2024-02-13T02:48:54.841Z,96890.78
2024-02-13T02:51:24.384Z,96902.78
2024-02-13T02:53:54.076Z,96894.25
2024-02-13T02:56:24.137Z,96899.34
2024-02-13T02:58:55.828Z,96906.03
2024-02-13T03:01:26.031Z,96908.19
2024-02-13T03:03:55.153Z,96911.91
2024-02-13T03:06:24.080Z,96909.78
2024-02-13T03:08:53.595Z,96922.56
2024-02-13T03:11:22.900Z,96921.22
2024-02-13T03:13:52.446Z,96924.19
2024-02-13T03:16:23.892Z,96923.13
2024-02-13T03:18:53.339Z,96934.84
2024-02-13T03:21:25.729Z,96935.38
2024-02-13T03:23:55.109Z,96951.03
2024-02-13T03:26:25.377Z,96946.78
2024-02-13T03:29:14.427Z,96942.50
2024-02-13T03:31:46.068Z,96948.59
2024-02-13T03:34:15.371Z,96956.63
2024-02-13T03:36:44.827Z,96952.59
2024-02-13T03:39:14.621Z,96957.41
2024-02-13T03:41:44.459Z,96961.66
2024-02-13T03:44:14.467Z,96966.19
2024-02-13T03:46:46.095Z,96973.63
2024-02-13T03:49:17.331Z,96973.88
2024-02-13T03:51:47.004Z,96974.69
2024-02-13T03:54:15.935Z,96975.22
2024-02-13T03:56:47.280Z,96983.19
2024-02-13T03:59:17.247Z,96982.13
2024-02-13T04:01:47.651Z,96987.16
2024-02-13T04:04:16.557Z,96989.56
2024-02-13T04:06:46.959Z,96991.09
2024-02-13T04:09:17.804Z,96984.22
2024-02-13T04:11:47.748Z,96999.63
2024-02-13T04:14:18.128Z,97004.97
2024-02-13T04:16:50.075Z,97008.19
2024-02-13T04:19:20.257Z,97018.81
2024-02-13T04:21:49.654Z,97016.44
2024-02-13T04:24:19.462Z,97015.09
2024-02-13T04:26:48.311Z,97019.66
2024-02-13T04:29:17.755Z,97021.72
2024-02-13T04:31:46.455Z,97023.06
2024-02-13T04:34:17.007Z,97019.56
2024-02-13T04:36:46.747Z,97023.84
2024-02-13T04:39:16.743Z,97029.19
2024-02-13T04:41:48.115Z,97035.34
2024-02-13T04:44:17.738Z,97042.28
2024-02-13T04:46:47.653Z,97035.09
2024-02-13T04:49:20.331Z,97041.47
2024-02-13T04:51:49.300Z,97049.13
2024-02-13T04:54:18.936Z,97039.53
2024-02-13T04:56:49.034Z,97045.44
2024-02-13T04:59:19.872Z,97044.84
2024-02-13T05:01:50.149Z,97043.84
2024-02-13T05:04:38.710Z,97049.44
2024-02-13T05:07:23.297Z,97056.84
2024-02-13T05:09:54.872Z,97054.41
2024-02-13T05:12:24.052Z,97055.00
2024-02-13T05:14:54.731Z,97055.56
2024-02-13T05:17:27.861Z,97054.00
2024-02-13T05:19:59.757Z,97063.06
2024-02-13T05:22:28.897Z,97070.50
2024-02-13T05:24:58.038Z,97072.56
2024-02-13T05:27:27.032Z,97074.56
2024-02-13T05:29:57.103Z,97075.88
2024-02-13T05:32:27.541Z,97071.94
2024-02-13T05:34:57.691Z,97081.78
2024-02-13T05:37:29.140Z,97082.31
2024-02-13T05:39:58.126Z,97078.81
2024-02-13T05:42:27.120Z,97092.16
2024-02-13T05:44:56.624Z,97102.59
2024-02-13T05:47:33.239Z,97099.09
2024-02-13T05:50:03.691Z,97099.34
2024-02-13T05:52:35.073Z,97099.84
2024-02-13T05:55:04.559Z,97104.06
2024-02-13T05:57:34.292Z,97107.75
2024-02-13T06:00:04.353Z,97104.63
2024-02-13T06:02:42.445Z,97104.13
2024-02-13T06:05:12.608Z,97103.38
2024-02-13T06:07:44.869Z,97108.19
2024-02-13T06:10:13.732Z,97110.06
2024-02-13T06:12:43.649Z,97112.69
2024-02-13T06:15:13.664Z,97111.09
2024-02-13T06:17:44.657Z,97115.63
2024-02-13T06:20:15.048Z,97126.00
2024-02-13T06:22:45.797Z,97122.25
2024-02-13T06:25:16.892Z,97128.41
2024-02-13T06:27:47.257Z,97138.97
2024-02-13T06:30:17.360Z,97131.28
2024-02-13T06:32:53.258Z,97145.09
2024-02-13T06:35:22.966Z,97152.47
2024-02-13T06:38:03.327Z,97156.44
2024-02-13T06:40:32.607Z,97148.75
2024-02-13T06:43:01.842Z,97156.72
2024-02-13T06:45:31.449Z,97165.78
2024-02-13T06:48:02.343Z,97157.31
2024-02-13T06:50:31.265Z,97167.41
2024-02-13T06:53:01.170Z,97168.97
2024-02-13T06:55:33.716Z,97177.41
2024-02-13T06:58:09.402Z,97178.00
2024-02-13T07:00:39.805Z,97185.94
2024-02-13T07:03:09.166Z,97184.31
2024-02-13T07:05:39.772Z,97194.19
2024-02-13T07:08:10.738Z,97202.34
2024-02-13T07:10:41.165Z,97203.16
2024-02-13T07:13:22.385Z,97204.97
2024-02-13T07:15:53.421Z,97204.97
2024-02-13T07:18:24.585Z,97206.38
2024-02-13T07:20:55.961Z,97208.75
2024-02-13T07:23:27.841Z,97214.09
2024-02-13T07:25:58.641Z,97214.09
2024-02-13T07:28:29.282Z,97218.28
2024-02-13T07:30:58.608Z,97218.06
2024-02-13T07:33:28.281Z,97221.53
2024-02-13T07:35:58.538Z,97219.22
2024-02-13T07:38:28.093Z,97210.47
2024-02-13T07:41:02.366Z,97216.94
2024-02-13T07:43:32.343Z,97214.06
2024-02-13T07:46:02.692Z,97213.25
2024-02-13T07:48:49.793Z,97215.00
2024-02-13T07:51:19.902Z,97214.88
2024-02-13T07:53:50.271Z,97220.44
2024-02-13T07:56:26.777Z,97219.13
2024-02-13T07:58:58.772Z,97227.03
2024-02-13T08:01:29.296Z,97221.81
2024-02-13T08:03:58.473Z,97223.44
2024-02-13T08:06:30.808Z,97222.38
2024-02-13T08:09:02.154Z,97233.53
2024-02-13T08:11:33.503Z,97238.34
2024-02-13T08:14:02.596Z,97231.38
2024-02-13T08:16:36.765Z,97236.16
2024-02-13T08:19:10.227Z,97238.59
2024-02-13T08:21:40.786Z,97249.00
2024-02-13T08:24:11.208Z,97251.66
2024-02-13T08:26:42.762Z,97248.78
2024-02-13T08:29:12.711Z,97258.94
2024-02-13T08:31:42.459Z,97260.78
2024-02-13T08:34:11.992Z,97261.41
2024-02-13T08:36:41.642Z,97256.31
2024-02-13T08:39:11.904Z,97257.72
2024-02-13T08:41:46.601Z,97256.38
2024-02-13T08:44:18.184Z,97262.53
2024-02-13T08:46:47.960Z,97263.66
2024-02-13T08:49:18.185Z,97261.03
2024-02-13T08:51:48.300Z,97261.06
2024-02-13T08:54:19.237Z,97257.25
2024-02-13T08:56:52.363Z,97263.97
2024-02-13T08:59:22.070Z,97269.13
2024-02-13T09:01:51.786Z,97267.56
2024-02-13T09:04:22.000Z,97270.75
2024-02-13T09:07:10.758Z,97269.97
2024-02-13T09:09:58.976Z,97269.72
2024-02-13T09:12:29.823Z,97268.13
2024-02-13T09:15:00.104Z,97268.91
2024-02-13T09:17:29.627Z,97267.09
2024-02-13T09:19:59.810Z,97270.91
2024-02-13T09:22:29.597Z,97271.19
2024-02-13T09:24:59.800Z,97273.38
2024-02-13T09:27:31.148Z,97269.13
2024-02-13T09:30:01.345Z,97263.28
2024-02-13T09:32:31.723Z,97267.34
2024-02-13T09:35:02.685Z,97278.03
2024-02-13T09:37:36.492Z,97280.72
2024-02-13T09:40:15.575Z,97280.44
2024-02-13T09:42:47.353Z,97281.78
2024-02-13T09:45:20.066Z,97283.72
2024-02-13T09:47:51.130Z,97288.00
2024-02-13T09:50:21.813Z,97290.38
2024-02-13T09:52:56.255Z,97291.47
2024-02-13T09:55:27.170Z,97291.50
2024-02-13T09:57:57.977Z,97289.91
2024-02-13T10:00:28.841Z,97278.72
2024-02-13T10:02:59.848Z,97286.97
2024-02-13T10:05:30.138Z,97289.91
2024-02-13T10:07:59.413Z,97291.50
2024-02-13T10:10:30.460Z,97288.03
2024-02-13T10:13:02.586Z,97288.09
2024-02-13T10:15:41.738Z,97299.84
2024-02-13T10:18:14.452Z,97287.28
2024-02-13T10:20:45.783Z,97288.91
2024-02-13T10:23:20.299Z,97285.69
2024-02-13T10:25:50.409Z,97297.72
2024-02-13T10:28:21.046Z,97296.91
2024-02-13T10:30:53.271Z,97286.50
2024-02-13T10:33:23.191Z,97291.59
2024-02-13T10:35:58.024Z,97285.16
2024-02-13T10:38:30.778Z,97282.19
2024-02-13T10:41:03.760Z,97279.81
2024-02-13T10:43:34.961Z,97280.91
2024-02-13T10:46:07.548Z,97286.22
2024-02-13T10:48:44.043Z,97298.00
2024-02-13T10:51:18.667Z,97292.41
2024-02-13T10:53:50.324Z,97284.66
2024-02-13T10:56:23.338Z,97287.31
2024-02-13T10:58:55.061Z,97287.31
2024-02-13T11:01:26.343Z,97285.69
2024-02-13T11:03:59.318Z,97286.75
2024-02-13T11:06:28.977Z,97282.75
2024-02-13T11:08:58.622Z,97283.03
2024-02-13T11:11:27.856Z,97284.63
2024-02-13T11:13:59.938Z,97284.63
2024-02-13T11:16:29.091Z,97277.44
2024-02-13T11:19:18.887Z,97281.97
2024-02-13T11:21:52.952Z,97274.47
2024-02-13T11:24:50.595Z,97273.41
2024-02-13T11:27:29.890Z,97277.94
2024-02-13T11:30:04.789Z,97287.25
2024-02-13T11:32:39.486Z,97273.34
2024-02-13T11:35:12.685Z,97266.97
2024-02-13T11:37:45.924Z,97269.63
2024-02-13T11:40:16.731Z,97265.88
2024-02-13T11:42:58.765Z,97270.16
2024-02-13T11:45:30.953Z,97273.38
2024-02-13T11:48:01.914Z,97269.13
2024-02-13T11:50:34.149Z,97270.72
2024-02-13T11:53:04.439Z,97271.25
2024-02-13T11:55:33.935Z,97266.72
2024-02-13T11:58:04.593Z,97269.38
2024-02-13T12:00:35.636Z,97258.13
2024-02-13T12:03:34.567Z,97250.59
2024-02-13T12:06:08.562Z,97265.28
2024-02-13T12:08:42.473Z,97258.84
2024-02-13T12:11:12.182Z,97256.69
2024-02-13T12:13:42.612Z,97256.13
2024-02-13T12:16:14.586Z,97261.44
2024-02-13T12:18:46.460Z,97261.72
2024-02-13T12:21:18.147Z,97261.47
2024-02-13T12:23:51.741Z,97263.09
2024-02-13T12:26:21.617Z,97265.19
2024-02-13T12:28:57.391Z,97260.41
2024-02-13T12:31:31.159Z,97250.81
2024-02-13T12:34:06.539Z,97251.88
2024-02-13T12:36:37.283Z,97260.94
2024-02-13T12:39:10.108Z,97259.31
2024-02-13T12:41:40.281Z,97253.41
2024-02-13T12:44:11.032Z,97259.25
2024-02-13T12:46:44.635Z,97255.44
2024-02-13T12:49:15.231Z,97258.63
2024-02-13T12:51:45.883Z,97252.28
2024-02-13T12:54:15.842Z,97252.28
2024-02-13T12:56:47.476Z,97255.75
2024-02-13T12:59:16.377Z,97253.63
2024-02-13T13:01:46.992Z,97253.63
2024-02-13T13:04:17.428Z,97248.81
2024-02-13T13:06:48.485Z,97245.31
2024-02-13T13:09:27.280Z,97258.69
2024-02-13T13:11:58.045Z,97250.72
2024-02-13T13:14:29.071Z,97254.16
2024-02-13T13:17:00.493Z,97250.19
2024-02-13T13:19:31.071Z,97245.38
2024-02-13T13:22:00.253Z,97251.78
2024-02-13T13:24:30.363Z,97244.00
2024-02-13T13:26:59.422Z,97247.97
2024-02-13T13:29:31.562Z,97248.03
2024-02-13T13:32:03.714Z,97242.56
2024-02-13T13:34:34.429Z,97250.06
2024-02-13T13:37:04.118Z,97245.81
2024-02-13T13:39:34.298Z,97240.91
2024-02-13T13:42:10.571Z,97245.81
2024-02-13T13:44:42.095Z,97243.16
2024-02-13T13:47:12.552Z,97242.66
2024-02-13T13:49:43.227Z,97239.16
2024-02-13T13:52:13.149Z,97255.19
2024-02-13T13:54:41.988Z,97240.97
2024-02-13T13:57:10.978Z,97240.47
2024-02-13T13:59:40.578Z,97243.16
2024-02-13T14:02:09.963Z,97243.09
2024-02-13T14:04:40.589Z,97242.84
2024-02-13T14:07:10.572Z,97245.81
2024-02-13T14:09:40.846Z,97248.41
2024-02-13T14:12:10.862Z,97244.59
2024-02-13T14:14:41.072Z,97249.66
2024-02-13T14:17:10.183Z,97253.09
2024-02-13T14:19:46.474Z,97254.38
2024-02-13T14:22:18.632Z,97248.84
2024-02-13T14:24:49.325Z,97255.00
2024-02-13T14:27:20.271Z,97250.50
2024-02-13T14:29:50.012Z,97248.84
2024-02-13T14:32:19.939Z,97248.34
2024-02-13T14:34:52.040Z,97257.78
2024-02-13T14:37:23.022Z,97258.56
2024-02-13T14:39:53.216Z,97256.47
2024-02-13T14:42:23.877Z,97245.22
2024-02-13T14:44:52.970Z,97254.78
2024-02-13T14:47:23.720Z,97251.00
2024-02-13T14:49:55.855Z,97246.75
2024-02-13T14:52:25.586Z,97251.28
2024-02-13T14:54:55.571Z,97248.88
2024-02-13T14:57:24.800Z,97246.75
2024-02-13T14:59:54.580Z,97254.44
2024-02-13T15:02:25.431Z,97250.53
2024-02-13T15:04:56.166Z,97248.03
2024-02-13T15:07:25.315Z,97251.78
2024-02-13T15:09:55.091Z,97248.88
2024-02-13T15:12:25.605Z,97257.41
2024-02-13T15:14:55.942Z,97246.63
2024-02-13T15:17:25.679Z,97246.63
2024-02-13T15:19:58.905Z,97255.31
2024-02-13T15:22:32.183Z,97246.75
2024-02-13T15:25:04.297Z,97249.66
2024-02-13T15:27:35.304Z,97256.63
2024-02-13T15:30:13.670Z,97259.56
2024-02-13T15:33:00.600Z,97260.38
2024-02-13T15:35:41.179Z,97256.00
2024-02-13T15:38:28.438Z,97264.84
2024-02-13T15:41:14.981Z,97258.06
2024-02-13T15:44:06.849Z,97256.63
2024-02-13T15:47:00.177Z,97258.22
2024-02-13T15:49:29.680Z,97256.09
2024-02-13T15:52:02.218Z,97255.72
2024-02-13T15:54:32.524Z,97258.69
2024-02-13T15:57:02.151Z,97250.63
2024-02-13T15:59:32.790Z,97256.53
2024-02-13T16:02:03.280Z,97264.03
2024-02-13T16:04:34.336Z,97263.75
2024-02-13T16:07:06.539Z,97257.59
2024-02-13T16:09:37.174Z,97266.72
2024-02-13T16:12:08.859Z,97269.41
2024-02-13T16:14:37.939Z,97268.88
2024-02-13T16:17:08.596Z,97264.09
2024-02-13T16:19:38.089Z,97270.00
2024-02-13T16:22:08.852Z,97269.50
2024-02-13T16:24:39.509Z,97273.84
2024-02-13T16:27:09.844Z,97273.31
2024-02-13T16:29:41.145Z,97280.31
2024-02-13T16:32:13.035Z,97277.41
2024-02-13T16:34:45.044Z,97286.78
2024-02-13T16:37:15.973Z,97287.88
2024-02-13T16:39:44.720Z,97287.94
2024-02-13T16:42:14.794Z,97295.72
2024-02-13T16:44:45.005Z,97293.88
2024-02-13T16:47:14.833Z,97294.97
2024-02-13T16:49:43.958Z,97290.72
2024-02-13T16:52:12.805Z,97286.19
2024-02-13T16:54:44.216Z,97295.31
2024-02-13T16:57:14.344Z,97296.44
2024-02-13T16:59:44.967Z,97297.81
2024-02-13T17:02:16.419Z,97301.59
2024-02-13T17:04:46.280Z,97308.81
2024-02-13T17:07:16.725Z,97316.06
2024-02-13T17:09:47.767Z,97311.78
2024-02-13T17:12:17.141Z,97319.81
2024-02-13T17:14:47.638Z,97315.56
2024-02-13T17:17:18.758Z,97323.59
2024-02-13T17:19:49.535Z,97325.50
2024-02-13T17:22:18.621Z,97324.69
2024-02-13T17:24:49.700Z,97330.88
2024-02-13T17:27:20.263Z,97323.66
2024-02-13T17:29:49.291Z,97329.00
2024-02-13T17:32:18.222Z,97328.50
2024-02-13T17:34:47.373Z,97329.56
2024-02-13T17:37:17.069Z,97328.75
2024-02-13T17:39:46.621Z,97331.16
2024-02-13T17:42:17.852Z,97326.88
2024-02-13T17:44:47.046Z,97331.16
2024-02-13T17:47:17.793Z,97334.34
2024-02-13T17:49:46.965Z,97337.56
2024-02-13T17:52:16.566Z,97333.25
2024-02-13T17:54:45.810Z,97328.47
2024-02-13T17:57:14.672Z,97337.28
2024-02-13T17:59:45.620Z,97338.59
2024-02-13T18:02:15.444Z,97341.78
2024-02-13T18:04:45.395Z,97342.31
2024-02-13T18:07:15.090Z,97336.44
2024-02-13T18:09:44.508Z,97337.47
2024-02-13T18:12:16.799Z,97342.25
2024-02-13T18:14:47.207Z,97339.59
2024-02-13T18:17:17.844Z,97340.13
2024-02-13T18:19:48.532Z,97340.63
2024-02-13T18:22:17.760Z,97340.59
2024-02-13T18:24:47.412Z,97336.56
2024-02-13T18:27:17.605Z,97340.03
2024-02-13T18:29:51.252Z,97340.28
2024-02-13T18:32:22.099Z,97336.28
2024-02-13T18:34:51.470Z,97340.50
2024-02-13T18:37:21.086Z,97342.09
2024-02-13T18:39:51.567Z,97345.81
2024-02-13T18:42:22.990Z,97343.69
2024-02-13T18:44:55.021Z,97334.28
2024-02-13T18:47:24.586Z,97339.31
2024-02-13T18:49:55.176Z,97341.97
2024-02-13T18:52:25.077Z,97340.88
2024-02-13T18:54:56.997Z,97353.38
2024-02-13T18:57:27.565Z,97347.75
2024-02-13T18:59:58.542Z,97354.66
2024-02-13T19:02:28.244Z,97353.03
2024-02-13T19:04:58.788Z,97345.50
2024-02-13T19:07:29.170Z,97350.47
2024-02-13T19:09:59.259Z,97353.63
2024-02-13T19:12:29.245Z,97355.47
2024-02-13T19:15:01.074Z,97355.72
2024-02-13T19:17:31.368Z,97360.22
2024-02-13T19:20:00.913Z,97360.72
2024-02-13T19:22:31.595Z,97360.44
2024-02-13T19:25:02.131Z,97359.63
2024-02-13T19:27:33.657Z,97356.94
2024-02-13T19:30:04.537Z,97356.63
2024-02-13T19:32:35.686Z,97360.56
2024-02-13T19:35:06.234Z,97373.28
2024-02-13T19:37:37.066Z,97364.16
2024-02-13T19:40:08.009Z,97357.75
2024-02-13T19:42:53.812Z,97365.13
2024-02-13T19:45:24.759Z,97362.97
2024-02-13T19:48:04.535Z,97369.06
2024-02-13T19:50:54.257Z,97371.66
2024-02-13T19:53:44.276Z,97373.50
2024-02-13T19:56:34.532Z,97368.09
2024-02-13T19:59:23.876Z,97364.75
2024-02-13T20:02:20.465Z,97371.19
2024-02-13T20:05:10.319Z,97361.56
2024-02-13T20:07:59.662Z,97369.97
2024-02-13T20:10:29.974Z,97366.72
2024-02-13T20:12:59.886Z,97362.22
2024-02-13T20:15:29.474Z,97363.97
2024-02-13T20:18:01.484Z,97363.41
2024-02-13T20:20:32.977Z,97367.59
2024-02-13T20:23:02.336Z,97366.00
2024-02-13T20:25:32.089Z,97362.16
2024-02-13T20:28:01.500Z,97361.03
2024-02-13T20:30:33.492Z,97358.00
2024-02-13T20:33:05.389Z,97361.66
2024-02-13T20:35:34.589Z,97368.31
2024-02-13T20:38:06.222Z,97371.25
2024-02-13T20:40:37.532Z,97375.44
2024-02-13T20:43:11.357Z,97374.88
2024-02-13T20:45:42.102Z,97372.47
2024-02-13T20:48:13.542Z,97376.66
2024-02-13T20:50:43.077Z,97379.16
2024-02-13T20:53:14.131Z,97369.50
2024-02-13T20:55:45.451Z,97381.44
2024-02-13T20:58:15.785Z,97380.06
2024-02-13T21:00:45.377Z,97378.88
2024-02-13T21:03:20.471Z,97384.13
2024-02-13T21:05:49.903Z,97381.13
2024-02-13T21:08:19.965Z,97387.25
2024-02-13T21:10:50.011Z,97390.41
2024-02-13T21:13:19.649Z,97390.63
2024-02-13T21:15:49.313Z,97394.00
2024-02-13T21:18:41.384Z,97390.47
2024-02-13T21:21:30.574Z,97390.78
2024-02-13T21:23:58.676Z,97394.00
2024-02-13T21:26:28.918Z,97389.97
2024-02-13T21:28:59.585Z,97389.25
2024-02-13T21:31:28.610Z,97391.44
2024-02-13T21:33:59.687Z,97396.41
2024-02-13T21:36:28.884Z,97393.03
2024-02-13T21:38:58.210Z,97392.72
2024-02-13T21:41:27.064Z,97393.75
2024-02-13T21:43:56.989Z,97392.41
2024-02-13T21:46:26.347Z,97388.34
2024-02-13T21:48:56.145Z,97398.91
2024-02-13T21:51:26.560Z,97392.06
2024-02-13T21:53:56.953Z,97385.13
2024-02-13T21:56:27.075Z,97391.06
2024-02-13T21:59:00.385Z,97389.06
2024-02-13T22:01:29.179Z,97391.88
2024-02-13T22:03:58.824Z,97387.03
2024-02-13T22:06:31.017Z,97399.50
2024-02-13T22:09:00.048Z,97395.00
2024-02-13T22:11:29.965Z,97394.91
2024-02-13T22:13:58.909Z,97397.97
2024-02-13T22:16:32.876Z,97395.22
2024-02-13T22:19:04.287Z,97398.22
2024-02-13T22:21:34.833Z,97395.22
2024-02-13T22:24:05.424Z,97392.31
2024-02-13T22:26:40.060Z,97398.94
2024-02-13T22:29:09.475Z,97391.34
2024-02-13T22:31:39.540Z,97400.34
2024-02-13T22:34:08.935Z,97399.66
2024-02-13T22:36:40.175Z,97401.22
2024-02-13T22:39:10.604Z,97402.94
2024-02-13T22:41:40.827Z,97412.25
2024-02-13T22:44:12.047Z,97409.97
2024-02-13T22:46:42.187Z,97401.56
2024-02-13T22:49:11.747Z,97407.53
2024-02-13T22:51:45.107Z,97403.75
2024-02-13T22:54:16.317Z,97405.72
2024-02-13T22:56:47.800Z,97416.34
2024-02-13T22:59:17.171Z,97421.19
2024-02-13T23:01:45.965Z,97413.47
2024-02-13T23:04:15.098Z,97426.94
2024-02-13T23:06:46.202Z,97416.00
2024-02-13T23:09:18.425Z,97425.81
2024-02-13T23:11:49.971Z,97423.72
2024-02-13T23:14:19.639Z,97423.72
2024-02-13T23:16:49.821Z,97421.06
2024-02-13T23:19:19.729Z,97423.25
2024-02-13T23:21:51.053Z,97424.66
2024-02-13T23:24:19.812Z,97424.56
2024-02-13T23:26:49.395Z,97426.06
2024-02-13T23:29:20.559Z,97431.81
2024-02-13T23:31:50.254Z,97439.22
2024-02-13T23:34:19.860Z,97432.75
2024-02-13T23:36:51.179Z,97436.47
2024-02-13T23:39:20.124Z,97436.56
2024-02-13T23:41:49.761Z,97428.75
2024-02-13T23:44:19.234Z,97434.03
2024-02-13T23:46:47.925Z,97435.31
2024-02-13T23:49:16.871Z,97437.72
2024-02-13T23:51:45.586Z,97439.94
2024-02-13T23:54:18.194Z,97425.97
2024-02-13T23:56:47.041Z,97428.13
2024-02-13T23:59:16.682Z,97424.34
